createdAt,value
2016-05-11T00:00:14.040Z,0
2016-05-11T00:01:13.856Z,0
2016-05-11T00:02:13.858Z,0
2016-05-11T00:03:14.033Z,0
2016-05-11T00:04:13.801Z,0
2016-05-11T00:05:13.928Z,0
2016-05-11T00:06:13.931Z,0
2016-05-11T00:07:13.919Z,0
2016-05-11T00:08:13.889Z,0
2016-05-11T00:09:13.893Z,0
2016-05-11T00:10:13.724Z,0
2016-05-11T00:11:13.851Z,0
2016-05-11T00:12:13.808Z,0
2016-05-11T00:13:13.810Z,0
2016-05-11T00:14:13.640Z,0
2016-05-11T00:15:13.706Z,0
2016-05-11T00:16:13.599Z,0
2016-05-11T00:17:13.586Z,0
2016-05-11T00:18:13.573Z,0
2016-05-11T00:19:13.560Z,0
2016-05-11T00:20:13.688Z,0
2016-05-11T00:21:13.518Z,0
2016-05-11T00:22:13.662Z,0
2016-05-11T00:23:13.649Z,0
2016-05-11T00:24:13.479Z,0
2016-05-11T00:25:13.593Z,0
2016-05-11T00:26:13.563Z,0
2016-05-11T00:27:13.551Z,0
2016-05-11T00:28:13.538Z,0
2016-05-11T00:29:13.368Z,0
2016-05-11T00:30:13.106Z,0
2016-05-11T00:31:13.342Z,0
2016-05-11T00:32:13.486Z,0
2016-05-11T00:33:13.551Z,0
2016-05-11T00:34:13.429Z,0
2016-05-11T00:35:13.431Z,0
2016-05-11T00:36:13.387Z,0
2016-05-11T00:37:13.359Z,0
2016-05-11T00:38:13.377Z,0
2016-05-11T00:39:13.380Z,0
2016-05-11T00:40:13.008Z,0
2016-05-11T00:41:13.307Z,0
2016-05-11T00:42:13.122Z,0
2016-05-11T00:43:13.265Z,0
2016-05-11T00:44:13.237Z,0
2016-05-11T00:45:13.239Z,0
2016-05-11T00:46:13.227Z,0
2016-05-11T00:47:12.886Z,0
2016-05-11T00:48:13.169Z,0
2016-05-11T00:49:13.157Z,0
2016-05-11T00:50:13.144Z,0
2016-05-11T00:51:13.115Z,0
2016-05-11T00:52:12.946Z,0
2016-05-11T00:53:13.073Z,0
2016-05-11T00:54:13.076Z,0
2016-05-11T00:55:12.735Z,0
2016-05-11T00:56:12.879Z,0
2016-05-11T00:57:13.006Z,0
2016-05-11T00:58:13.009Z,0
2016-05-11T00:59:13.137Z,0
2016-05-11T01:00:13.373Z,0
2016-05-11T01:01:12.798Z,0
2016-05-11T01:02:12.925Z,0
2016-05-11T01:03:12.912Z,0
2016-05-11T01:04:12.884Z,0
2016-05-11T01:05:12.872Z,0
2016-05-11T01:06:12.843Z,0
2016-05-11T01:07:12.658Z,0
2016-05-11T01:08:12.817Z,0
2016-05-11T01:09:12.788Z,0
2016-05-11T01:10:12.775Z,0
2016-05-11T01:11:12.575Z,0
2016-05-11T01:12:12.578Z,0
2016-05-11T01:13:12.706Z,0
2016-05-11T01:14:12.692Z,0
2016-05-11T01:15:13.164Z,0
2016-05-11T01:16:12.651Z,0
2016-05-11T01:17:12.686Z,0
2016-05-11T01:18:12.593Z,0
2016-05-11T01:19:12.596Z,0
2016-05-11T01:20:12.568Z,0
2016-05-11T01:21:12.555Z,0
2016-05-11T01:22:12.386Z,0
2016-05-11T01:23:12.529Z,0
2016-05-11T01:24:12.516Z,0
2016-05-11T01:25:12.487Z,0
2016-05-11T01:26:12.460Z,0
2016-05-11T01:27:12.462Z,0
2016-05-11T01:28:12.449Z,0
2016-05-11T01:29:12.405Z,0
2016-05-11T01:30:12.251Z,0
2016-05-11T01:31:12.362Z,0
2016-05-11T01:32:12.194Z,0
2016-05-11T01:33:12.182Z,0
2016-05-11T01:34:12.153Z,0
2016-05-11T01:35:12.312Z,0
2016-05-11T01:36:12.283Z,0
2016-05-11T01:37:12.114Z,0
2016-05-11T01:38:12.100Z,0
2016-05-11T01:39:12.245Z,0
2016-05-11T01:40:12.200Z,0
2016-05-11T01:41:12.046Z,0
2016-05-11T01:42:12.159Z,0
2016-05-11T01:43:12.005Z,0
2016-05-11T01:44:12.148Z,0
2016-05-11T01:45:11.980Z,0
2016-05-11T01:46:11.950Z,0
2016-05-11T01:47:11.765Z,0
2016-05-11T01:48:12.096Z,0
2016-05-11T01:49:11.897Z,0
2016-05-11T01:50:11.868Z,0
2016-05-11T01:51:12.027Z,0
2016-05-11T01:52:11.982Z,0
2016-05-11T01:53:11.969Z,0
2016-05-11T01:54:11.816Z,0
2016-05-11T01:55:11.787Z,0
2016-05-11T01:56:11.774Z,0
2016-05-11T01:57:11.918Z,0
2016-05-11T01:58:11.890Z,0
2016-05-11T01:59:11.720Z,0
2016-05-11T02:00:12.551Z,0
2016-05-11T02:01:11.662Z,0
2016-05-11T02:02:11.806Z,0
2016-05-11T02:03:11.620Z,0
2016-05-11T02:04:11.765Z,0
2016-05-11T02:05:11.752Z,0
2016-05-11T02:06:11.426Z,0
2016-05-11T02:07:11.397Z,0
2016-05-11T02:08:11.697Z,0
2016-05-11T02:09:11.669Z,0
2016-05-11T02:10:11.671Z,0
2016-05-11T02:11:11.486Z,0
2016-05-11T02:12:11.661Z,0
2016-05-11T02:13:11.445Z,0
2016-05-11T02:14:11.432Z,0
2016-05-11T02:15:11.591Z,0
2016-05-11T02:16:11.375Z,0
2016-05-11T02:17:11.519Z,0
2016-05-11T02:18:11.552Z,0
2016-05-11T02:19:11.539Z,0
2016-05-11T02:20:11.324Z,0
2016-05-11T02:21:11.435Z,0
2016-05-11T02:22:11.266Z,0
2016-05-11T02:23:11.113Z,0
2016-05-11T02:24:11.396Z,0
2016-05-11T02:25:11.399Z,0
2016-05-11T02:26:11.370Z,0
2016-05-11T02:27:11.326Z,0
2016-05-11T02:28:11.329Z,0
2016-05-11T02:29:11.301Z,0
2016-05-11T02:30:10.990Z,0
2016-05-11T02:31:11.274Z,0
2016-05-11T02:32:11.090Z,0
2016-05-11T02:33:11.280Z,0
2016-05-11T02:34:11.220Z,0
2016-05-11T02:35:10.879Z,0
2016-05-11T02:36:11.178Z,0
2016-05-11T02:37:10.994Z,0
2016-05-11T02:38:10.965Z,0
2016-05-11T02:39:10.984Z,0
2016-05-11T02:40:11.096Z,0
2016-05-11T02:41:11.083Z,0
2016-05-11T02:42:11.054Z,0
2016-05-11T02:43:11.041Z,0
2016-05-11T02:44:11.059Z,0
2016-05-11T02:45:11.265Z,0
2016-05-11T02:46:10.987Z,0
2016-05-11T02:47:10.958Z,0
2016-05-11T02:48:10.992Z,0
2016-05-11T02:49:10.933Z,0
2016-05-11T02:50:10.919Z,0
2016-05-11T02:51:10.891Z,0
2016-05-11T02:52:10.722Z,0
2016-05-11T02:53:10.740Z,0
2016-05-11T02:54:10.836Z,0
2016-05-11T02:55:10.527Z,0
2016-05-11T02:56:10.795Z,0
2016-05-11T02:57:10.782Z,0
2016-05-11T02:58:10.628Z,0
2016-05-11T02:59:10.429Z,0
2016-05-11T03:00:11.072Z,0
2016-05-11T03:01:10.543Z,0
2016-05-11T03:02:10.686Z,0
2016-05-11T03:03:10.673Z,0
2016-05-11T03:04:10.644Z,0
2016-05-11T03:05:10.631Z,0
2016-05-11T03:06:10.619Z,0
2016-05-11T03:07:10.606Z,0
2016-05-11T03:08:10.593Z,0
2016-05-11T03:09:10.392Z,0
2016-05-11T03:10:10.551Z,0
2016-05-11T03:11:10.522Z,0
2016-05-11T03:12:10.509Z,0
2016-05-11T03:13:10.341Z,0
2016-05-11T03:14:10.484Z,0
2016-05-11T03:15:10.564Z,0
2016-05-11T03:16:10.442Z,0
2016-05-11T03:17:10.258Z,0
2016-05-11T03:18:10.230Z,0
2016-05-11T03:19:10.372Z,0
2016-05-11T03:20:10.391Z,0
2016-05-11T03:21:10.330Z,0
2016-05-11T03:22:10.161Z,0
2016-05-11T03:23:10.305Z,0
2016-05-11T03:24:10.260Z,0
2016-05-11T03:25:10.295Z,0
2016-05-11T03:26:10.094Z,0
2016-05-11T03:27:10.066Z,0
2016-05-11T03:28:10.194Z,0
2016-05-11T03:29:10.212Z,0
2016-05-11T03:30:10.182Z,0
2016-05-11T03:31:10.146Z,0
2016-05-11T03:32:10.016Z,0
2016-05-11T03:33:10.214Z,0
2016-05-11T03:34:10.210Z,0
2016-05-11T03:35:10.080Z,0
2016-05-11T03:36:10.103Z,0
2016-05-11T03:37:10.245Z,0
2016-05-11T03:38:10.246Z,0
2016-05-11T03:39:10.247Z,0
2016-05-11T03:40:10.092Z,0
2016-05-11T03:41:10.248Z,0
2016-05-11T03:42:10.209Z,0
2016-05-11T03:43:10.044Z,0
2016-05-11T03:44:10.193Z,0
2016-05-11T03:45:10.592Z,5
2016-05-11T03:46:10.145Z,5
2016-05-11T03:47:09.979Z,5
2016-05-11T03:48:10.139Z,5
2016-05-11T03:49:09.987Z,5
2016-05-11T03:50:09.945Z,5
2016-05-11T03:51:09.918Z,5
2016-05-11T03:52:10.045Z,5
2016-05-11T03:53:10.034Z,10
2016-05-11T03:54:09.896Z,10
2016-05-11T03:55:09.993Z,10
2016-05-11T03:56:09.980Z,10
2016-05-11T03:57:09.811Z,15
2016-05-11T03:58:09.939Z,15
2016-05-11T03:59:09.927Z,15
2016-05-11T04:00:10.133Z,15
2016-05-11T04:01:09.903Z,20
2016-05-11T04:02:09.717Z,20
2016-05-11T04:03:09.845Z,20
2016-05-11T04:04:09.848Z,20
2016-05-11T04:05:09.803Z,20
2016-05-11T04:06:09.790Z,20
2016-05-11T04:07:09.808Z,20
2016-05-11T04:08:09.797Z,20
2016-05-11T04:09:09.767Z,15
2016-05-11T04:10:09.723Z,15
2016-05-11T04:11:09.725Z,15
2016-05-11T04:12:09.696Z,20
2016-05-11T04:13:09.668Z,15
2016-05-11T04:14:09.703Z,15
2016-05-11T04:15:09.768Z,15
2016-05-11T04:16:09.661Z,15
2016-05-11T04:17:09.429Z,20
2016-05-11T04:18:09.432Z,20
2016-05-11T04:19:09.247Z,20
2016-05-11T04:20:09.218Z,20
2016-05-11T04:21:09.362Z,25
2016-05-11T04:22:09.521Z,25
2016-05-11T04:23:09.476Z,25
2016-05-11T04:24:09.448Z,25
2016-05-11T04:25:09.467Z,30
2016-05-11T04:26:09.423Z,30
2016-05-11T04:27:09.410Z,30
2016-05-11T04:28:09.240Z,35
2016-05-11T04:29:09.587Z,35
2016-05-11T04:30:09.433Z,35
2016-05-11T04:31:09.373Z,35
2016-05-11T04:32:09.156Z,40
2016-05-11T04:33:09.301Z,40
2016-05-11T04:34:09.272Z,40
2016-05-11T04:35:09.102Z,40
2016-05-11T04:36:09.105Z,40
2016-05-11T04:37:09.061Z,40
2016-05-11T04:38:09.204Z,45
2016-05-11T04:39:09.051Z,50
2016-05-11T04:40:09.022Z,50
2016-05-11T04:41:09.166Z,55
2016-05-11T04:42:08.997Z,60
2016-05-11T04:43:08.811Z,60
2016-05-11T04:44:08.939Z,55
2016-05-11T04:45:09.364Z,60
2016-05-11T04:46:09.054Z,70
2016-05-11T04:47:09.041Z,75
2016-05-11T04:48:08.857Z,75
2016-05-11T04:49:09.015Z,70
2016-05-11T04:50:08.987Z,75
2016-05-11T04:51:08.958Z,80
2016-05-11T04:52:08.992Z,85
2016-05-11T04:53:08.932Z,85
2016-05-11T04:54:08.920Z,90
2016-05-11T04:55:08.890Z,95
2016-05-11T04:56:08.879Z,100
2016-05-11T04:57:08.848Z,100
2016-05-11T04:58:08.852Z,105
2016-05-11T04:59:08.683Z,105
2016-05-11T05:00:08.889Z,110
2016-05-11T05:01:08.703Z,110
2016-05-11T05:02:08.613Z,110
2016-05-11T05:03:08.756Z,110
2016-05-11T05:04:08.603Z,110
2016-05-11T05:05:08.403Z,110
2016-05-11T05:06:08.717Z,115
2016-05-11T05:07:08.376Z,110
2016-05-11T05:08:08.644Z,115
2016-05-11T05:09:08.647Z,115
2016-05-11T05:10:08.494Z,120
2016-05-11T05:11:08.637Z,125
2016-05-11T05:12:08.593Z,130
2016-05-11T05:13:08.580Z,135
2016-05-11T05:14:08.395Z,135
2016-05-11T05:15:08.616Z,140
2016-05-11T05:16:09.244Z,145
2016-05-11T05:17:08.497Z,150
2016-05-11T05:18:08.718Z,155
2016-05-11T05:19:10.221Z,160
2016-05-11T05:20:08.302Z,165
2016-05-11T05:21:08.273Z,170
2016-05-11T05:22:08.479Z,175
2016-05-11T05:23:08.435Z,175
2016-05-11T05:24:08.234Z,185
2016-05-11T05:25:08.394Z,180
2016-05-11T05:26:08.192Z,180
2016-05-11T05:27:08.180Z,180
2016-05-11T05:28:08.307Z,185
2016-05-11T05:29:08.295Z,190
2016-05-11T05:30:08.312Z,195
2016-05-11T05:31:08.285Z,205
2016-05-11T05:32:08.334Z,205
2016-05-11T05:33:08.259Z,210
2016-05-11T05:34:08.231Z,210
2016-05-11T05:35:08.201Z,210
2016-05-11T05:36:08.173Z,210
2016-05-11T05:37:08.160Z,215
2016-05-11T05:38:08.147Z,220
2016-05-11T05:39:08.150Z,220
2016-05-11T05:40:08.106Z,225
2016-05-11T05:41:08.092Z,230
2016-05-11T05:42:08.064Z,235
2016-05-11T05:43:08.052Z,245
2016-05-11T05:44:08.038Z,245
2016-05-11T05:45:07.713Z,245
2016-05-11T05:46:07.731Z,245
2016-05-11T05:47:07.983Z,250
2016-05-11T05:48:07.658Z,260
2016-05-11T05:49:07.943Z,260
2016-05-11T05:50:07.789Z,260
2016-05-11T05:51:07.916Z,260
2016-05-11T05:52:07.607Z,260
2016-05-11T05:53:07.734Z,255
2016-05-11T05:54:07.877Z,250
2016-05-11T05:55:07.849Z,245
2016-05-11T05:56:07.836Z,250
2016-05-11T05:57:07.651Z,245
2016-05-11T05:58:07.795Z,240
2016-05-11T05:59:07.797Z,240
2016-05-11T06:00:07.768Z,240
2016-05-11T06:01:07.725Z,240
2016-05-11T06:02:07.586Z,250
2016-05-11T06:03:07.715Z,255
2016-05-11T06:04:07.717Z,255
2016-05-11T06:05:07.689Z,255
2016-05-11T06:06:07.503Z,265
2016-05-11T06:07:07.647Z,270
2016-05-11T06:08:07.650Z,275
2016-05-11T06:09:07.621Z,280
2016-05-11T06:10:07.609Z,285
2016-05-11T06:11:07.439Z,290
2016-05-11T06:12:07.269Z,295
2016-05-11T06:13:07.570Z,300
2016-05-11T06:14:07.385Z,305
2016-05-11T06:15:07.528Z,305
2016-05-11T06:16:07.686Z,305
2016-05-11T06:17:07.486Z,310
2016-05-11T06:18:07.474Z,310
2016-05-11T06:19:07.382Z,315
2016-05-11T06:20:17.277Z,315
2016-05-11T06:21:23.590Z,315
2016-05-11T06:22:15.593Z,320
2016-05-11T06:23:08.831Z,320
2016-05-11T06:24:18.349Z,330
2016-05-11T06:25:09.289Z,325
2016-05-11T06:26:14.729Z,325
2016-05-11T06:27:10.826Z,325
2016-05-11T06:28:08.954Z,325
2016-05-11T06:29:09.738Z,335
2016-05-11T06:30:07.349Z,340
2016-05-11T06:31:07.149Z,345
2016-05-11T06:32:07.245Z,340
2016-05-11T06:33:07.233Z,350
2016-05-11T06:34:07.064Z,345
2016-05-11T06:35:07.238Z,360
2016-05-11T06:36:07.179Z,380
2016-05-11T06:37:07.165Z,380
2016-05-11T06:38:06.840Z,390
2016-05-11T06:39:07.155Z,420
2016-05-11T06:40:07.142Z,480
2016-05-11T06:41:07.114Z,500
2016-05-11T06:42:06.928Z,555
2016-05-11T06:43:07.088Z,525
2016-05-11T06:44:06.918Z,535
2016-05-11T06:45:07.046Z,515
2016-05-11T06:46:06.425Z,490
2016-05-11T06:47:06.708Z,485
2016-05-11T06:48:06.852Z,450
2016-05-11T06:49:07.010Z,445
2016-05-11T06:50:06.982Z,490
2016-05-11T06:51:06.969Z,500
2016-05-11T06:52:06.955Z,485
2016-05-11T06:53:06.943Z,465
2016-05-11T06:54:06.914Z,445
2016-05-11T06:55:06.916Z,440
2016-05-11T06:56:06.748Z,420
2016-05-11T06:57:06.719Z,440
2016-05-11T06:58:06.862Z,490
2016-05-11T06:59:06.881Z,505
2016-05-11T07:00:06.837Z,615
2016-05-11T07:01:11.730Z,685
2016-05-11T07:02:16.343Z,830
2016-05-11T07:03:06.625Z,720
2016-05-11T07:04:06.801Z,555
2016-05-11T07:05:06.819Z,615
2016-05-11T07:06:06.603Z,605
2016-05-11T07:07:06.746Z,780
2016-05-11T07:08:06.748Z,880
2016-05-11T07:09:06.736Z,1000
2016-05-11T07:10:06.707Z,1010
2016-05-11T07:11:06.694Z,1120
2016-05-11T07:12:06.541Z,1145
2016-05-11T07:13:06.527Z,1190
2016-05-11T07:14:06.640Z,1220
2016-05-11T07:15:06.642Z,1210
2016-05-11T07:16:06.442Z,1205
2016-05-11T07:17:06.460Z,1225
2016-05-11T07:18:06.619Z,1225
2016-05-11T07:19:06.622Z,1230
2016-05-11T07:20:06.593Z,1240
2016-05-11T07:21:06.596Z,1225
2016-05-11T07:22:06.568Z,1210
2016-05-11T07:23:06.398Z,1205
2016-05-11T07:24:06.557Z,1225
2016-05-11T07:25:06.544Z,1215
2016-05-11T07:26:06.546Z,1235
2016-05-11T07:27:06.378Z,1290
2016-05-11T07:28:06.381Z,1310
2016-05-11T07:29:06.540Z,1310
2016-05-11T07:30:06.198Z,1285
2016-05-11T07:31:06.357Z,1250
2016-05-11T07:32:06.345Z,1210
2016-05-11T07:33:06.331Z,1195
2016-05-11T07:34:06.506Z,1210
2016-05-11T07:35:06.493Z,1240
2016-05-11T07:36:06.481Z,1280
2016-05-11T07:37:06.467Z,1315
2016-05-11T07:38:06.314Z,1320
2016-05-11T07:39:06.317Z,1345
2016-05-11T07:40:06.460Z,1375
2016-05-11T07:41:08.697Z,1375
2016-05-11T07:42:06.465Z,1400
2016-05-11T07:43:11.859Z,1425
2016-05-11T07:44:13.064Z,1420
2016-05-11T07:45:12.801Z,1405
2016-05-11T07:46:11.554Z,1380
2016-05-11T07:47:11.417Z,1365
2016-05-11T07:48:12.325Z,1345
2016-05-11T07:49:06.422Z,1375
2016-05-11T07:50:12.205Z,1455
2016-05-11T07:51:12.271Z,1525
2016-05-11T07:52:09.054Z,1535
2016-05-11T07:53:13.244Z,1520
2016-05-11T07:54:13.358Z,1465
2016-05-11T07:55:13.172Z,1420
2016-05-11T07:56:13.410Z,1365
2016-05-11T07:57:13.240Z,1305
2016-05-11T07:58:13.679Z,1275
2016-05-11T07:59:13.105Z,1285
2016-05-11T08:00:13.577Z,1245
2016-05-11T08:01:12.719Z,1245
2016-05-11T08:02:13.332Z,1285
2016-05-11T08:03:12.771Z,1325
2016-05-11T08:04:13.087Z,1365
2016-05-11T08:05:13.012Z,1435
2016-05-11T08:06:12.687Z,1515
2016-05-11T08:07:13.564Z,1580
2016-05-11T08:08:07.973Z,1595
2016-05-11T08:09:12.412Z,1615
2016-05-11T08:10:12.884Z,1610
2016-05-11T08:11:13.012Z,1555
2016-05-11T08:12:06.343Z,1510
2016-05-11T08:13:06.330Z,1410
2016-05-11T08:14:11.676Z,1315
2016-05-11T08:15:13.382Z,1260
2016-05-11T08:16:11.416Z,1235
2016-05-11T08:17:12.872Z,1290
2016-05-11T08:18:06.172Z,1380
2016-05-11T08:19:06.314Z,1465
2016-05-11T08:20:06.317Z,1545
2016-05-11T08:21:06.305Z,1630
2016-05-11T08:22:06.182Z,1645
2016-05-11T08:23:06.153Z,1595
2016-05-11T08:24:06.297Z,1565
2016-05-11T08:25:06.003Z,1540
2016-05-11T08:26:06.146Z,1545
2016-05-11T08:27:06.289Z,1565
2016-05-11T08:28:08.230Z,1570
2016-05-11T08:29:06.294Z,1580
2016-05-11T08:30:06.282Z,1575
2016-05-11T08:31:06.675Z,1570
2016-05-11T08:32:06.287Z,1545
2016-05-11T08:33:06.274Z,1545
2016-05-11T08:34:06.121Z,1580
2016-05-11T08:35:06.264Z,1630
2016-05-11T08:36:06.282Z,1645
2016-05-11T08:37:06.270Z,1660
2016-05-11T08:38:06.100Z,1640
2016-05-11T08:39:06.259Z,1665
2016-05-11T08:40:06.262Z,1615
2016-05-11T08:41:06.093Z,1545
2016-05-11T08:42:06.251Z,1460
2016-05-11T08:43:06.082Z,1390
2016-05-11T08:44:06.101Z,1335
2016-05-11T08:45:06.259Z,1345
2016-05-11T08:46:07.090Z,1400
2016-05-11T08:47:06.078Z,1425
2016-05-11T08:48:06.095Z,995
2016-05-11T08:49:07.131Z,410
2016-05-11T08:50:06.539Z,315
2016-05-11T08:51:06.322Z,310
2016-05-11T08:52:06.216Z,305
2016-05-11T08:53:05.906Z,300
2016-05-11T08:54:06.221Z,295
2016-05-11T08:55:06.224Z,285
2016-05-11T08:56:06.196Z,285
2016-05-11T08:57:06.183Z,275
2016-05-11T08:58:06.029Z,265
2016-05-11T08:59:06.032Z,260
2016-05-11T09:00:06.222Z,255
2016-05-11T09:01:06.412Z,255
2016-05-11T09:02:06.008Z,255
2016-05-11T09:03:06.168Z,255
2016-05-11T09:04:05.983Z,255
2016-05-11T09:05:05.985Z,255
2016-05-11T09:06:06.143Z,255
2016-05-11T09:07:06.116Z,255
2016-05-11T09:08:06.103Z,250
2016-05-11T09:09:06.073Z,250
2016-05-11T09:10:06.093Z,250
2016-05-11T09:11:06.079Z,250
2016-05-11T09:12:06.067Z,250
2016-05-11T09:13:06.054Z,250
2016-05-11T09:14:05.900Z,245
2016-05-11T09:15:05.887Z,245
2016-05-11T09:16:25.499Z,245
2016-05-11T09:17:06.955Z,245
2016-05-11T09:18:05.692Z,240
2016-05-11T09:19:05.991Z,235
2016-05-11T09:20:05.995Z,235
2016-05-11T09:21:05.997Z,235
2016-05-11T09:22:05.969Z,235
2016-05-11T09:23:05.940Z,235
2016-05-11T09:24:05.630Z,235
2016-05-11T09:25:05.758Z,235
2016-05-11T09:26:05.761Z,235
2016-05-11T09:27:05.888Z,235
2016-05-11T09:28:05.735Z,235
2016-05-11T09:29:05.706Z,230
2016-05-11T09:30:05.849Z,230
2016-05-11T09:31:06.243Z,225
2016-05-11T09:32:05.855Z,220
2016-05-11T09:33:05.810Z,220
2016-05-11T09:34:05.657Z,220
2016-05-11T09:35:05.785Z,220
2016-05-11T09:36:05.834Z,220
2016-05-11T09:37:05.774Z,225
2016-05-11T09:38:05.776Z,225
2016-05-11T09:39:05.733Z,225
2016-05-11T09:40:05.736Z,220
2016-05-11T09:41:05.723Z,220
2016-05-11T09:42:05.710Z,220
2016-05-11T09:43:05.697Z,215
2016-05-11T09:44:05.684Z,215
2016-05-11T09:45:05.655Z,215
2016-05-11T09:46:05.814Z,215
2016-05-11T09:47:05.473Z,210
2016-05-11T09:48:05.461Z,205
2016-05-11T09:49:05.619Z,205
2016-05-11T09:50:05.591Z,205
2016-05-11T09:51:05.594Z,205
2016-05-11T09:52:05.565Z,200
2016-05-11T09:53:05.567Z,200
2016-05-11T09:54:05.383Z,195
2016-05-11T09:55:05.525Z,195
2016-05-11T09:56:05.528Z,200
2016-05-11T09:57:05.203Z,200
2016-05-11T09:58:05.488Z,200
2016-05-11T09:59:05.318Z,195
2016-05-11T10:00:05.446Z,195
2016-05-11T10:01:05.651Z,195
2016-05-11T10:02:05.294Z,195
2016-05-11T10:03:05.376Z,190
2016-05-11T10:04:05.409Z,190
2016-05-11T10:05:05.257Z,185
2016-05-11T10:06:05.227Z,185
2016-05-11T10:07:05.387Z,185
2016-05-11T10:08:05.233Z,190
2016-05-11T10:09:05.188Z,190
2016-05-11T10:10:05.160Z,195
2016-05-11T10:11:05.304Z,195
2016-05-11T10:12:05.290Z,200
2016-05-11T10:13:05.137Z,200
2016-05-11T10:14:05.281Z,200
2016-05-11T10:15:05.111Z,205
2016-05-11T10:16:05.301Z,210
2016-05-11T10:17:05.085Z,210
2016-05-11T10:18:05.212Z,210
2016-05-11T10:19:05.216Z,195
2016-05-11T10:20:05.203Z,190
2016-05-11T10:21:05.034Z,195
2016-05-11T10:22:05.161Z,195
2016-05-11T10:23:05.147Z,200
2016-05-11T10:24:05.151Z,205
2016-05-11T10:25:05.138Z,200
2016-05-11T10:26:05.109Z,195
2016-05-11T10:27:05.097Z,195
2016-05-11T10:28:05.068Z,200
2016-05-11T10:29:04.758Z,205
2016-05-11T10:30:05.058Z,210
2016-05-11T10:31:05.044Z,215
2016-05-11T10:32:52.642Z,225
2016-05-11T10:33:05.082Z,225
2016-05-11T10:34:05.069Z,225
2016-05-11T10:35:05.055Z,230
2016-05-11T10:36:05.044Z,235
2016-05-11T10:37:04.998Z,230
2016-05-11T10:38:04.861Z,230
2016-05-11T10:39:04.848Z,220
2016-05-11T10:40:04.819Z,225
2016-05-11T10:41:04.822Z,225
2016-05-11T10:42:04.950Z,245
2016-05-11T10:43:04.780Z,265
2016-05-11T10:44:04.923Z,285
2016-05-11T10:45:04.910Z,280
2016-05-11T10:46:05.585Z,270
2016-05-11T10:47:04.884Z,255
2016-05-11T10:48:04.747Z,235
2016-05-11T10:49:07.421Z,215
2016-05-11T10:50:04.690Z,215
2016-05-11T10:51:04.833Z,225
2016-05-11T10:52:04.820Z,230
2016-05-11T10:53:04.651Z,220
2016-05-11T10:54:07.514Z,205
2016-05-11T10:55:04.781Z,190
2016-05-11T10:56:04.769Z,195
2016-05-11T10:57:04.739Z,195
2016-05-11T10:58:04.727Z,205
2016-05-11T10:59:06.073Z,195
2016-05-11T11:00:04.717Z,190
2016-05-11T11:01:04.969Z,185
2016-05-11T11:02:04.691Z,185
2016-05-11T11:03:04.663Z,190
2016-05-11T11:04:06.072Z,190
2016-05-11T11:05:04.496Z,195
2016-05-11T11:06:04.624Z,200
2016-05-11T11:07:04.627Z,195
2016-05-11T11:08:04.613Z,195
2016-05-11T11:09:05.444Z,190
2016-05-11T11:10:04.415Z,185
2016-05-11T11:11:04.575Z,185
2016-05-11T11:12:04.421Z,185
2016-05-11T11:13:04.548Z,180
2016-05-11T11:14:05.130Z,175
2016-05-11T11:15:04.523Z,170
2016-05-11T11:16:04.212Z,165
2016-05-11T11:17:04.512Z,165
2016-05-11T11:18:04.329Z,160
2016-05-11T11:19:06.174Z,160
2016-05-11T11:20:04.489Z,160
2016-05-11T11:21:04.290Z,160
2016-05-11T11:22:04.432Z,160
2016-05-11T11:23:04.404Z,155
2016-05-11T11:24:06.859Z,155
2016-05-11T11:25:04.393Z,155
2016-05-11T11:26:04.365Z,155
2016-05-11T11:27:04.195Z,155
2016-05-11T11:28:04.355Z,155
2016-05-11T11:29:05.311Z,155
2016-05-11T11:30:04.313Z,155
2016-05-11T11:31:04.097Z,155
2016-05-11T11:32:04.303Z,155
2016-05-11T11:33:04.197Z,155
2016-05-11T11:34:04.871Z,160
2016-05-11T11:35:04.124Z,160
2016-05-11T11:36:04.251Z,160
2016-05-11T11:37:04.082Z,160
2016-05-11T11:38:04.210Z,160
2016-05-11T11:39:05.680Z,160
2016-05-11T11:40:04.199Z,160
2016-05-11T11:41:04.186Z,155
2016-05-11T11:42:04.018Z,155
2016-05-11T11:43:04.035Z,155
2016-05-11T11:44:04.476Z,160
2016-05-11T11:45:04.119Z,160
2016-05-11T11:46:04.419Z,160
2016-05-11T11:47:04.093Z,160
2016-05-11T11:48:04.080Z,160
2016-05-11T11:49:04.068Z,155
2016-05-11T11:50:04.054Z,155
2016-05-11T11:51:04.056Z,155
2016-05-11T11:52:04.029Z,155
2016-05-11T11:53:04.000Z,155
2016-05-11T11:54:05.581Z,155
2016-05-11T11:55:03.973Z,150
2016-05-11T11:56:03.977Z,150
2016-05-11T11:57:03.964Z,150
2016-05-11T11:58:03.935Z,150
2016-05-11T11:59:03.798Z,150
2016-05-11T12:00:06.895Z,150
2016-05-11T12:01:04.194Z,155
2016-05-11T12:02:03.883Z,155
2016-05-11T12:03:03.714Z,150
2016-05-11T12:04:03.858Z,150
2016-05-11T12:05:03.688Z,150
2016-05-11T12:06:03.816Z,150
2016-05-11T12:07:03.663Z,150
2016-05-11T12:08:03.666Z,145
2016-05-11T12:09:03.636Z,145
2016-05-11T12:10:03.780Z,140
2016-05-11T12:11:03.783Z,140
2016-05-11T12:12:03.755Z,140
2016-05-11T12:13:03.585Z,135
2016-05-11T12:14:03.557Z,135
2016-05-11T12:15:03.699Z,140
2016-05-11T12:16:04.577Z,135
2016-05-11T12:17:03.705Z,135
2016-05-11T12:18:03.660Z,135
2016-05-11T12:19:03.507Z,135
2016-05-11T12:20:03.479Z,135
2016-05-11T12:21:03.607Z,135
2016-05-11T12:22:03.625Z,140
2016-05-11T12:23:03.581Z,140
2016-05-11T12:24:03.459Z,140
2016-05-11T12:25:03.273Z,140
2016-05-11T12:26:03.557Z,140
2016-05-11T12:27:03.545Z,135
2016-05-11T12:28:03.517Z,135
2016-05-11T12:29:03.534Z,130
2016-05-11T12:30:03.537Z,130
2016-05-11T12:31:03.633Z,130
2016-05-11T12:32:03.527Z,130
2016-05-11T12:33:03.311Z,135
2016-05-11T12:34:03.438Z,135
2016-05-11T12:35:03.441Z,130
2016-05-11T12:36:03.428Z,130
2016-05-11T12:37:03.441Z,130
2016-05-11T12:38:03.475Z,130
2016-05-11T12:39:03.525Z,130
2016-05-11T12:40:03.841Z,130
2016-05-11T12:41:03.594Z,130
2016-05-11T12:42:03.595Z,130
2016-05-11T12:43:03.600Z,135
2016-05-11T12:44:03.463Z,135
2016-05-11T12:45:03.467Z,135
2016-05-11T12:46:03.456Z,135
2016-05-11T12:47:03.594Z,135
2016-05-11T12:48:03.587Z,135
2016-05-11T12:49:03.612Z,135
2016-05-11T12:50:03.589Z,135
2016-05-11T12:51:03.583Z,135
2016-05-11T12:52:03.558Z,135
2016-05-11T12:53:03.563Z,135
2016-05-11T12:54:03.535Z,140
2016-05-11T12:55:03.540Z,140
2016-05-11T12:56:03.514Z,135
2016-05-11T12:57:03.517Z,135
2016-05-11T12:58:03.505Z,135
2016-05-11T12:59:03.478Z,135
2016-05-11T13:00:03.467Z,135
2016-05-11T13:01:03.563Z,140
2016-05-11T13:02:03.441Z,135
2016-05-11T13:03:03.429Z,135
2016-05-11T13:04:03.244Z,135
2016-05-11T13:05:03.388Z,140
2016-05-11T13:06:03.391Z,140
2016-05-11T13:07:03.378Z,140
2016-05-11T13:08:03.380Z,140
2016-05-11T13:09:03.352Z,140
2016-05-11T13:10:03.324Z,140
2016-05-11T13:11:03.310Z,140
2016-05-11T13:12:03.297Z,140
2016-05-11T13:13:03.129Z,145
2016-05-11T13:14:03.303Z,140
2016-05-11T13:15:03.274Z,140
2016-05-11T13:16:02.965Z,140
2016-05-11T13:17:03.249Z,135
2016-05-11T13:18:03.220Z,135
2016-05-11T13:19:03.207Z,140
2016-05-11T13:20:03.038Z,140
2016-05-11T13:21:03.181Z,140
2016-05-11T13:22:03.013Z,135
2016-05-11T13:23:03.171Z,135
2016-05-11T13:24:03.142Z,140
2016-05-11T13:25:03.130Z,140
2016-05-11T13:26:03.117Z,140
2016-05-11T13:27:02.947Z,135
2016-05-11T13:28:03.091Z,135
2016-05-11T13:29:02.937Z,135
2016-05-11T13:30:03.065Z,135
2016-05-11T13:31:03.318Z,135
2016-05-11T13:32:02.884Z,135
2016-05-11T13:33:03.026Z,135
2016-05-11T13:34:02.701Z,135
2016-05-11T13:35:03.000Z,135
2016-05-11T13:36:02.987Z,135
2016-05-11T13:37:02.974Z,135
2016-05-11T13:38:02.806Z,135
2016-05-11T13:39:02.949Z,135
2016-05-11T13:40:02.936Z,135
2016-05-11T13:41:02.766Z,135
2016-05-11T13:42:02.894Z,140
2016-05-11T13:43:02.897Z,140
2016-05-11T13:44:02.884Z,140
2016-05-11T13:45:02.700Z,140
2016-05-11T13:46:02.718Z,140
2016-05-11T13:47:02.830Z,140
2016-05-11T13:48:02.832Z,140
2016-05-11T13:49:02.804Z,140
2016-05-11T13:50:02.479Z,140
2016-05-11T13:51:02.622Z,140
2016-05-11T13:52:02.765Z,145
2016-05-11T13:53:02.751Z,145
2016-05-11T13:54:02.754Z,145
2016-05-11T13:55:02.726Z,145
2016-05-11T13:56:02.573Z,140
2016-05-11T13:57:02.701Z,140
2016-05-11T13:58:02.719Z,140
2016-05-11T13:59:02.674Z,140
2016-05-11T14:00:02.676Z,140